Owatonna, MN

1:37 AM CST on February 22, 2017 (GMT -0600)
Owatonna Degner Regional

Weather History for KOWA - January, 2013

Change the Weather History Date:

Friday, January 4, 2013

  Actual Average Record
Temperature  
Mean Temperature 22 °F -  
Max Temperature 28 °F 20 °F 44 °F (1964)
Min Temperature 15 °F 3 °F -24 °F (1968)
Degree Days  
Heating Degree Days 44    
Moisture  
Dew Point 11 °F    
Average Humidity 66    
Maximum Humidity 74    
Minimum Humidity 51    
Precipitation  
Precipitation 0.00 in - - ()
Sea Level Pressure  
Sea Level Pressure 30.08 in    
Wind  
Wind Speed 11 mph (SSW)    
Max Wind Speed 17 mph    
Max Gust Speed -    
Visibility 10 miles    
Events      
Averages and records for this station are not official NWS values.
T = Trace of Precipitation, MM = Missing Value Source: NWS Daily Summary

Daily Weather History Graph

Daily Weather History Graph

Search for Another Location

Airport or City:

Trip Planner

Search our weather history database for the weather conditions in past years. The results will help you decide how hot, cold, wet, or windy it might be!

Date:

Astronomy

Jan. 04, 2013 Rise Set
Actual Time 7:48 AM CST 4:48 PM CST
Civil Twilight 7:15 AM CST 5:21 PM CST
Nautical Twilight 6:39 AM CST 5:57 PM CST
Astronomical Twilight 6:03 AM CST 6:32 PM CST
Moon No Moon Rise 11:14 AM CST (1/4)
Length of Visible Light 10h 05m
Length of Day
9h 00m
Waning Gibbous, 55% of the Moon is Illuminated
Jan 4
Waning Gibbous
Jan 4
Last Quarter
Jan 11
New
Jan 18
First Quarter
Jan 26
Full

Hourly Weather History & Observations

Time (CST) Temp. Windchill Dew Point Humidity Pressure Visibility Wind Dir Wind Speed Gust Speed Precip Events Conditions
12:13 AM 17.6 °F 4.3 °F 10.4 °F 73% 30.12 in 10.0 mi SW 12.7 mph - N/A   Clear
12:33 AM 17.6 °F 5.7 °F 8.6 °F 68% 30.10 in 10.0 mi SW 10.4 mph - N/A   Clear
12:53 AM 17.6 °F 5.7 °F 8.6 °F 68% 30.09 in 10.0 mi SW 10.4 mph - N/A   Clear
1:13 AM 17.6 °F 5.0 °F 10.4 °F 73% 30.09 in 10.0 mi SW 11.5 mph - N/A   Clear
1:33 AM 17.6 °F 5.0 °F 8.6 °F 68% 30.08 in 10.0 mi SSW 11.5 mph - N/A   Clear
1:53 AM 17.6 °F 3.2 °F 8.6 °F 68% 30.07 in 10.0 mi SSW 15.0 mph - N/A   Clear
2:14 AM 17.6 °F 2.2 °F 10.4 °F 73% 30.06 in 10.0 mi SSW 17.3 mph - N/A   Clear
2:34 AM 17.6 °F 2.7 °F 10.4 °F 73% 30.06 in 10.0 mi SSW 16.1 mph - N/A   Clear
3:13 AM 19.4 °F 8.6 °F 10.4 °F 68% 30.07 in 10.0 mi WSW 9.2 mph - N/A   Clear
3:33 AM 19.4 °F 7.2 °F 10.4 °F 68% 30.05 in 10.0 mi SW 11.5 mph - N/A   Clear
3:53 AM 19.4 °F 5.5 °F 10.4 °F 68% 30.05 in 10.0 mi SW 15.0 mph - N/A   Clear
4:13 AM 19.4 °F 5.5 °F 10.4 °F 68% 30.05 in 10.0 mi SW 15.0 mph - N/A   Clear
4:33 AM 19.4 °F 4.5 °F 10.4 °F 68% 30.04 in 10.0 mi SW 17.3 mph - N/A   Clear
5:14 AM 19.4 °F 5.5 °F 10.4 °F 68% 30.02 in 10.0 mi SW 15.0 mph - N/A   Clear
5:33 AM 19.4 °F 6.6 °F 10.4 °F 68% 30.02 in 10.0 mi SW 12.7 mph - N/A   Clear
5:53 AM 19.4 °F 7.2 °F 8.6 °F 63% 30.03 in 10.0 mi SW 11.5 mph - N/A   Clear
6:13 AM 17.6 °F 8.2 °F 8.6 °F 68% 30.03 in 10.0 mi WSW 6.9 mph - N/A   Clear
6:34 AM 19.4 °F 8.6 °F 10.4 °F 68% 30.03 in 10.0 mi SW 9.2 mph - N/A   Clear
7:08 AM 19.4 °F 6.6 °F 10.4 °F 68% 30.04 in 10.0 mi SW 12.7 mph - N/A   Clear
7:48 AM 19.4 °F 6.0 °F 10.4 °F 68% 30.04 in 10.0 mi SW 13.8 mph - N/A   Clear
7:55 AM 19.4 °F 5.5 °F 8.6 °F 63% 30.05 in 10.0 mi SW 15.0 mph - N/A   Clear
8:13 AM 19.4 °F 6.0 °F 8.6 °F 63% 30.05 in 10.0 mi SW 13.8 mph - N/A   Clear
8:34 AM 19.4 °F 6.0 °F 8.6 °F 63% 30.05 in 10.0 mi SW 13.8 mph - N/A   Clear
8:53 AM 19.4 °F 6.6 °F 8.6 °F 63% 30.05 in 10.0 mi SW 12.7 mph - N/A   Clear
9:07 AM 19.4 °F 6.0 °F 8.6 °F 63% 30.06 in 10.0 mi WSW 13.8 mph - N/A   Clear
9:34 AM 21.2 °F 8.3 °F 10.4 °F 63% 30.07 in 10.0 mi SW 13.8 mph - N/A   Clear
9:54 AM 21.2 °F 8.3 °F 10.4 °F 63% 30.07 in 10.0 mi SW 13.8 mph - N/A   Clear
10:13 AM 21.2 °F 8.3 °F 10.4 °F 63% 30.08 in 10.0 mi WSW 13.8 mph - N/A   Clear
10:33 AM 23.0 °F 11.7 °F 10.4 °F 59% 30.09 in 10.0 mi SW 11.5 mph - N/A   Clear
10:54 AM 23.0 °F 11.7 °F 10.4 °F 59% 30.08 in 10.0 mi WSW 11.5 mph - N/A   Clear
11:14 AM 24.8 °F 15.3 °F 12.2 °F 59% 30.08 in 10.0 mi WSW 9.2 mph - N/A   Clear
11:33 AM 24.8 °F 15.3 °F 12.2 °F 59% 30.08 in 10.0 mi WSW 9.2 mph - N/A   Clear
11:53 AM 26.6 °F 16.8 °F 12.2 °F 55% 30.08 in 10.0 mi WSW 10.4 mph - N/A   Clear
12:14 PM 26.6 °F 17.5 °F 12.2 °F 55% 30.08 in 10.0 mi WSW 9.2 mph - N/A   Clear
12:33 PM 26.6 °F 18.2 °F 12.2 °F 55% 30.08 in 10.0 mi WSW 8.1 mph - N/A   Clear
12:54 PM 26.6 °F 17.5 °F 12.2 °F 55% 30.07 in 10.0 mi WSW 9.2 mph - N/A   Clear
1:13 PM 28.4 °F 20.4 °F 14.0 °F 55% 30.08 in 10.0 mi WSW 8.1 mph - N/A   Clear
1:33 PM 28.4 °F 20.4 °F 14.0 °F 55% 30.08 in 10.0 mi WSW 8.1 mph - N/A   Clear
1:54 PM 28.4 °F 21.2 °F 12.2 °F 51% 30.08 in 10.0 mi WSW 6.9 mph - N/A   Clear
2:10 PM 28.4 °F 21.2 °F 14.0 °F 55% 30.07 in 10.0 mi WSW 6.9 mph - N/A   Clear
2:32 PM 28.4 °F 21.2 °F 15.8 °F 59% 30.08 in 10.0 mi SW 6.9 mph - N/A   Clear
2:53 PM 28.4 °F 20.4 °F 15.8 °F 59% 30.08 in 10.0 mi SW 8.1 mph - N/A   Clear
3:14 PM 28.4 °F 19.7 °F 15.8 °F 59% 30.09 in 10.0 mi SW 9.2 mph - N/A   Clear
3:33 PM 28.4 °F 19.7 °F 15.8 °F 59% 30.10 in 10.0 mi SW 9.2 mph - N/A   Clear
3:53 PM 26.6 °F 19.1 °F 15.8 °F 64% 30.09 in 10.0 mi SW 6.9 mph - N/A   Clear
4:13 PM 26.6 °F 19.1 °F 15.8 °F 64% 30.09 in 10.0 mi SW 6.9 mph - N/A   Clear
4:53 PM 21.2 °F 13.6 °F 12.2 °F 68% 30.09 in 10.0 mi SSW 5.8 mph - N/A   Clear
5:13 PM 21.2 °F 11.7 °F 12.2 °F 68% 30.10 in 10.0 mi SSW 8.1 mph - N/A   Clear
5:33 PM 21.2 °F 13.6 °F 12.2 °F 68% 30.10 in 10.0 mi South 5.8 mph - N/A   Clear
5:54 PM 19.4 °F 9.5 °F 10.4 °F 68% 30.10 in 10.0 mi South 8.1 mph - N/A   Clear
6:13 PM 19.4 °F 14.3 °F 10.4 °F 68% 30.10 in 10.0 mi South 3.5 mph - N/A   Clear
6:34 PM 17.6 °F 9.3 °F 10.4 °F 73% 30.10 in 10.0 mi South 5.8 mph - N/A   Clear
6:53 PM 19.4 °F 10.4 °F 12.2 °F 74% 30.10 in 10.0 mi South 6.9 mph - N/A   Clear
7:13 PM 19.4 °F 8.6 °F 10.4 °F 68% 30.10 in 10.0 mi South 9.2 mph - N/A   Clear
7:33 PM 19.4 °F 7.9 °F 10.4 °F 68% 30.10 in 10.0 mi South 10.4 mph - N/A   Clear
7:53 PM 19.4 °F 8.6 °F 10.4 °F 68% 30.11 in 10.0 mi South 9.2 mph - N/A   Clear
8:13 PM 19.4 °F 8.6 °F 10.4 °F 68% 30.11 in 10.0 mi South 9.2 mph - N/A   Clear
8:33 PM 17.6 °F 7.3 °F 10.4 °F 73% 30.10 in 10.0 mi SSW 8.1 mph - N/A   Clear
8:53 PM 17.6 °F 8.2 °F 10.4 °F 73% 30.10 in 10.0 mi SSW 6.9 mph - N/A   Clear
9:13 PM 19.4 °F 9.5 °F 12.2 °F 74% 30.10 in 10.0 mi South 8.1 mph - N/A   Clear
9:34 PM 17.6 °F 9.3 °F 10.4 °F 73% 30.09 in 10.0 mi SSE 5.8 mph - N/A   Clear
9:53 PM 15.8 °F 10.2 °F 8.6 °F 73% 30.08 in 10.0 mi SE 3.5 mph - N/A   Clear
10:13 PM 17.6 °F 8.2 °F 10.4 °F 73% 30.08 in 10.0 mi SSE 6.9 mph - N/A   Clear
10:33 PM 17.6 °F 9.3 °F 10.4 °F 73% 30.08 in 10.0 mi ESE 5.8 mph - N/A   Clear
10:53 PM 17.6 °F 12.3 °F 10.4 °F 73% 30.08 in 10.0 mi SE 3.5 mph - N/A   Clear
11:14 PM 17.6 °F 8.2 °F 10.4 °F 73% 30.08 in 10.0 mi SSE 6.9 mph - N/A   Clear
11:34 PM 15.8 °F 5.1 °F 8.6 °F 73% 30.07 in 10.0 mi SSE 8.1 mph - N/A   Clear
11:53 PM 15.8 °F 6.1 °F 8.6 °F 73% 30.06 in 10.0 mi SSE 6.9 mph - N/A   Clear